createdAt,value
2019-01-19T00:02:08.482Z,7.83
2019-01-19T00:07:53.987Z,6.33
2019-01-19T00:13:39.214Z,5.53
2019-01-19T00:16:40.536Z,5.00
2019-01-19T00:22:27.312Z,5.03
2019-01-19T00:28:12.062Z,4.53
2019-01-19T00:33:57.662Z,5.10
2019-01-19T00:39:44.444Z,5.10
2019-01-19T00:42:46.127Z,5.20
2019-01-19T00:48:32.666Z,5.57
2019-01-19T00:54:18.144Z,5.93
2019-01-19T01:00:02.986Z,4.90
2019-01-19T01:05:49.586Z,5.20
2019-01-19T01:11:34.602Z,4.73
2019-01-19T01:14:36.073Z,4.57
2019-01-19T01:20:22.883Z,4.80
2019-01-19T01:26:04.191Z,4.67
2019-01-19T01:31:50.647Z,5.10
2019-01-19T01:37:37.123Z,4.63
2019-01-19T01:40:38.851Z,4.97
2019-01-19T01:43:40.998Z,4.67
2019-01-19T01:46:42.055Z,5.37
2019-01-19T01:52:28.661Z,4.67
2019-01-19T01:58:15.177Z,5.03
2019-01-19T02:04:01.038Z,6.00
2019-01-19T02:07:02.498Z,5.33
2019-01-19T02:12:49.222Z,4.43
2019-01-19T02:18:33.854Z,4.60
2019-01-19T02:24:19.301Z,4.30
2019-01-19T02:30:05.514Z,4.67
2019-01-19T02:35:50.964Z,5.20
2019-01-19T02:38:52.159Z,5.20
2019-01-19T02:44:37.874Z,5.13
2019-01-19T02:50:23.026Z,4.97
2019-01-19T02:56:09.451Z,4.73
2019-01-19T03:01:55.289Z,5.10
2019-01-19T03:04:56.807Z,4.53
2019-01-19T03:10:42.481Z,4.70
2019-01-19T03:16:28.994Z,4.60
2019-01-19T03:22:15.305Z,5.17
2019-01-19T03:28:00.830Z,5.20
2019-01-19T03:33:46.524Z,4.77
2019-01-19T03:39:30.764Z,4.90
2019-01-19T03:42:32.388Z,4.57
2019-01-19T03:48:17.225Z,5.07
2019-01-19T03:54:03.670Z,4.40
2019-01-19T03:59:49.262Z,4.97
2019-01-19T04:05:34.900Z,4.60
2019-01-19T04:11:20.560Z,5.43
2019-01-19T04:14:22.181Z,5.87
2019-01-19T04:20:08.494Z,5.83
2019-01-19T04:25:53.389Z,5.43
2019-01-19T04:31:38.838Z,6.07
2019-01-19T04:37:25.105Z,5.27
2019-01-19T04:43:11.631Z,4.67
2019-01-19T04:46:12.842Z,4.87
2019-01-19T04:51:58.587Z,5.17
2019-01-19T04:57:39.231Z,4.47
2019-01-19T05:03:24.807Z,4.60
2019-01-19T05:06:30.499Z,4.90
2019-01-19T05:12:13.849Z,4.70
2019-01-19T05:17:59.877Z,3.97
2019-01-19T05:23:45.268Z,4.10
2019-01-19T05:26:46.025Z,4.77
2019-01-19T05:32:30.880Z,4.47
2019-01-19T05:38:15.794Z,4.23
2019-01-19T05:41:17.844Z,4.30
2019-01-19T05:44:19.499Z,4.10
2019-01-19T05:47:20.812Z,4.47
2019-01-19T05:53:06.775Z,4.20
2019-01-19T05:58:52.006Z,4.10
2019-01-19T06:04:38.486Z,3.60
2019-01-19T06:07:41.567Z,4.20
2019-01-19T06:13:27.819Z,3.90
2019-01-19T06:19:14.123Z,4.40
2019-01-19T06:25:00.326Z,4.03
2019-01-19T06:28:01.707Z,4.28
2019-01-19T06:33:47.237Z,3.57
2019-01-19T06:39:32.565Z,3.67
2019-01-19T06:45:17.976Z,3.60
2019-01-19T06:48:18.679Z,3.73
2019-01-19T06:51:18.746Z,4.00
2019-01-19T06:54:19.395Z,3.30
2019-01-19T07:00:04.962Z,3.87
2019-01-19T07:03:06.365Z,3.60
2019-01-19T07:08:52.038Z,4.07
2019-01-19T07:14:38.231Z,4.20
2019-01-19T07:20:24.946Z,4.90
2019-01-19T07:23:31.328Z,4.47
2019-01-19T07:29:16.281Z,4.53
2019-01-19T07:35:18.601Z,4.93
2019-01-19T07:41:05.559Z,4.83
2019-01-19T07:44:07.088Z,4.40
2019-01-19T07:49:53.542Z,4.60
2019-01-19T07:55:39.374Z,4.73
2019-01-19T08:01:24.864Z,5.23
2019-01-19T08:04:26.172Z,4.40
2019-01-19T08:10:13.061Z,5.80
2019-01-19T08:15:58.698Z,5.17
2019-01-19T08:21:45.094Z,4.90
2019-01-19T08:27:31.829Z,5.37
2019-01-19T08:30:33.054Z,5.50
2019-01-19T08:36:19.555Z,5.33
2019-01-19T08:39:39.144Z,5.03
2019-01-19T08:42:39.763Z,5.03
2019-01-19T08:45:40.649Z,4.90
2019-01-19T08:51:31.486Z,4.63
2019-01-19T08:57:16.126Z,4.70
2019-01-19T09:03:01.474Z,5.10
2019-01-19T09:08:47.739Z,5.67
2019-01-19T09:11:48.201Z,4.87
2019-01-19T09:14:49.601Z,5.03
2019-01-19T09:17:50.570Z,4.93
2019-01-19T09:23:36.251Z,4.60
2019-01-19T09:29:21.962Z,4.60
2019-01-19T09:35:06.633Z,3.90
2019-01-19T09:40:52.587Z,3.97
2019-01-19T09:43:54.168Z,3.43
2019-01-19T09:49:38.891Z,3.33
2019-01-19T09:55:24.122Z,3.17
2019-01-19T10:01:09.209Z,2.83
2019-01-19T10:04:11.639Z,3.23
2019-01-19T10:07:13.990Z,3.50
2019-01-19T10:10:15.647Z,2.97
2019-01-19T10:16:01.548Z,2.60
2019-01-19T10:21:42.200Z,2.40
2019-01-19T10:27:27.678Z,2.57
2019-01-19T10:33:11.564Z,2.53
2019-01-19T10:38:56.360Z,5.63
2019-01-19T10:41:57.475Z,3.20
2019-01-19T10:47:42.838Z,3.40
2019-01-19T10:53:28.374Z,3.07
2019-01-19T10:59:14.324Z,2.03
2019-01-19T11:02:15.611Z,1.57
2019-01-19T11:08:03.983Z,3.97
2019-01-19T11:13:47.570Z,3.20
2019-01-19T11:19:32.442Z,1.40
2019-01-19T11:22:33.283Z,1.50
2019-01-19T11:28:18.975Z,1.30
2019-01-19T11:34:04.599Z,1.40
2019-01-19T11:39:51.179Z,1.33
2019-01-19T11:43:15.796Z,1.20
2019-01-19T11:46:35.225Z,2.80
2019-01-19T11:49:34.805Z,1.73
2019-01-19T11:55:20.479Z,1.33
2019-01-19T11:58:21.726Z,1.67
2019-01-19T12:04:07.401Z,1.70
2019-01-19T12:09:52.823Z,1.10
2019-01-19T12:15:39.542Z,1.07
2019-01-19T12:18:40.542Z,1.47
2019-01-19T12:24:27.109Z,1.50
2019-01-19T12:30:13.583Z,1.37
2019-01-19T12:35:59.690Z,1.50
2019-01-19T12:39:00.912Z,1.20
2019-01-19T12:44:46.607Z,1.40
2019-01-19T12:50:32.791Z,1.30
2019-01-19T12:56:18.866Z,1.20
2019-01-19T12:59:20.206Z,1.07
2019-01-19T13:05:06.191Z,1.40
2019-01-19T13:10:51.673Z,1.87
2019-01-19T13:16:38.129Z,1.50
2019-01-19T13:19:39.371Z,1.33
2019-01-19T13:25:25.678Z,1.40
2019-01-19T13:31:11.347Z,1.30
2019-01-19T13:36:52.696Z,1.17
2019-01-19T13:42:38.006Z,1.23
2019-01-19T13:48:23.825Z,1.60
2019-01-19T13:51:25.259Z,1.30
2019-01-19T13:54:27.856Z,1.20
2019-01-19T13:57:29.343Z,1.30
2019-01-19T14:03:15.945Z,1.57
2019-01-19T14:09:02.518Z,1.77
2019-01-19T14:14:47.475Z,1.90
2019-01-19T14:17:48.610Z,1.50
2019-01-19T14:23:34.230Z,1.67
2019-01-19T14:29:20.630Z,1.67
2019-01-19T14:35:07.249Z,2.30
2019-01-19T14:44:17.150Z,2.70
2019-01-19T14:50:02.718Z,2.20
2019-01-19T14:55:48.124Z,1.90
2019-01-19T15:01:33.933Z,2.77
2019-01-19T15:07:20.367Z,2.93
2019-01-19T15:13:05.661Z,2.40
2019-01-19T15:18:51.367Z,2.27
2019-01-19T15:24:33.531Z,2.23
2019-01-19T15:30:19.433Z,2.40
2019-01-19T15:36:03.991Z,2.37
2019-01-19T15:39:10.897Z,2.17
2019-01-19T15:44:52.093Z,3.10
2019-01-19T15:50:38.050Z,3.17
2019-01-19T15:56:24.654Z,2.90
2019-01-19T16:02:10.985Z,2.37
2019-01-19T16:07:57.179Z,2.30
2019-01-19T16:10:58.302Z,2.37
2019-01-19T16:16:44.130Z,2.10
2019-01-19T16:22:30.306Z,2.77
2019-01-19T16:28:16.562Z,2.40
2019-01-19T16:34:02.894Z,2.10
2019-01-19T16:37:03.457Z,2.67
2019-01-19T16:42:48.890Z,2.57
2019-01-19T16:48:35.054Z,2.40
2019-01-19T16:54:20.911Z,2.43
2019-01-19T17:00:07.162Z,3.80
2019-01-19T17:05:53.486Z,3.50
2019-01-19T17:11:39.451Z,3.70
2019-01-19T17:14:41.007Z,3.20
2019-01-19T17:20:26.536Z,2.80
2019-01-19T17:26:12.397Z,3.57
2019-01-19T17:31:58.895Z,2.57
2019-01-19T17:37:44.127Z,2.83
2019-01-19T17:40:45.387Z,3.40
2019-01-19T17:46:31.961Z,3.40
2019-01-19T17:52:17.242Z,3.10
2019-01-19T17:58:03.846Z,3.33
2019-01-19T18:03:49.550Z,3.17
2019-01-19T18:09:34.287Z,3.77
2019-01-19T18:12:35.525Z,3.30
2019-01-19T18:18:21.203Z,3.80
2019-01-19T18:24:05.742Z,3.20
2019-01-19T18:29:51.311Z,3.60
2019-01-19T18:35:58.018Z,4.27
2019-01-19T18:38:59.399Z,4.23
2019-01-19T18:44:44.179Z,4.30
2019-01-19T18:50:29.083Z,3.77
2019-01-19T18:56:13.998Z,3.43
2019-01-19T19:01:59.154Z,3.20
2019-01-19T19:07:44.935Z,3.37
2019-01-19T19:10:45.442Z,3.47
2019-01-19T19:16:31.160Z,3.67
2019-01-19T19:22:17.578Z,3.20
2019-01-19T19:28:03.023Z,3.43
2019-01-19T19:33:47.869Z,3.90
2019-01-19T19:39:33.622Z,3.63
2019-01-19T19:45:20.343Z,3.57
2019-01-19T19:48:21.443Z,4.43
2019-01-19T19:54:06.847Z,4.40
2019-01-19T19:59:51.886Z,4.80
2019-01-19T20:05:37.548Z,4.27
2019-01-19T20:08:38.820Z,3.97
2019-01-19T20:14:23.430Z,4.50
2019-01-19T20:17:25.211Z,3.90
2019-01-19T20:20:26.617Z,4.37
2019-01-19T20:26:12.744Z,4.17
2019-01-19T20:31:58.277Z,3.50
2019-01-19T20:37:42.933Z,3.80
2019-01-19T20:40:44.222Z,4.10
2019-01-19T20:46:31.555Z,4.00
2019-01-19T20:52:17.649Z,4.70
2019-01-19T20:58:04.025Z,5.43
2019-01-19T21:03:50.329Z,5.13
2019-01-19T21:09:36.283Z,4.23
2019-01-19T21:12:37.405Z,4.23
2019-01-19T21:18:23.235Z,4.00
2019-01-19T21:24:08.640Z,4.37
2019-01-19T21:29:54.361Z,3.97
2019-01-19T21:32:55.688Z,4.10
2019-01-19T21:38:40.574Z,3.83
2019-01-19T21:44:26.273Z,4.33
2019-01-19T21:47:28.417Z,4.60
2019-01-19T21:50:29.667Z,4.70
2019-01-19T21:56:15.177Z,3.93
2019-01-19T21:59:16.442Z,5.00
2019-01-19T22:05:03.038Z,4.00
2019-01-19T22:10:48.654Z,4.20
2019-01-19T22:16:34.427Z,4.00
2019-01-19T22:19:34.931Z,4.70
2019-01-19T22:25:20.474Z,4.70
2019-01-19T22:31:07.251Z,5.30
2019-01-19T22:36:53.095Z,5.43
2019-01-19T22:39:53.635Z,6.73
2019-01-19T22:45:39.373Z,6.90
2019-01-19T22:51:24.384Z,6.70
2019-01-19T22:57:08.922Z,7.80
2019-01-19T23:00:10.455Z,7.67
2019-01-19T23:05:55.180Z,7.00
2019-01-19T23:11:41.411Z,5.77
2019-01-19T23:17:26.116Z,5.60
2019-01-19T23:23:11.708Z,6.27
2019-01-19T23:26:12.922Z,5.93
2019-01-19T23:31:58.850Z,5.90
2019-01-19T23:35:01.346Z,6.57
2019-01-19T23:38:02.807Z,6.27
2019-01-19T23:43:47.679Z,6.03
2019-01-19T23:46:54.872Z,6.10
2019-01-19T23:52:40.767Z,6.70
2019-01-19T23:58:26.053Z,7.33
